UAL1676 SKRG-KIAH
Flight info
| Callsign | UAL1676 |
|---|---|
| Flight time | N/A |
| Altitude | 34000 |
| Route | RNG2B RNG A323 KOTIN/N0467F360 UN653 SEKMA DCT SPP UM205 SIGMA UA766 RORLA/N0460F380 UA766 KEHLI A766 KELPP LINKK1 |
| Aircraft | B38M/M-SDE1FGHILORVWXY/HB1 |
Departure
| Time | N/A |
|---|---|
| Airport | Jose Maria Córdova International Airport (SKRG) |
Arrival
| Time | 2026-05-03 20:55 |
|---|---|
| Airport | George Bush Intercontinental Airport (KIAH) |
| Time | Latitude | Longitude | Altitude | Speed | Heading |
|---|---|---|---|---|---|
| 2026-05-03 20:15 | 28.36799 | -93.24252 | 36192 ft | 373 kts | 311° |
| 2026-05-03 20:15 | 28.40498 | -93.28331 | 36191 ft | 373 kts | 311° |
| 2026-05-03 20:16 | 28.44198 | -93.32414 | 35588 ft | 368 kts | 311° |
| 2026-05-03 20:16 | 28.46023 | -93.34431 | 35158 ft | 362 kts | 312° |
| 2026-05-03 20:16 | 28.47812 | -93.36407 | 34797 ft | 355 kts | 312° |
| 2026-05-03 20:16 | 28.49564 | -93.38345 | 34442 ft | 347 kts | 312° |
| 2026-05-03 20:17 | 28.51298 | -93.40264 | 34086 ft | 351 kts | 312° |
| 2026-05-03 20:17 | 28.53068 | -93.42225 | 33649 ft | 359 kts | 312° |
| 2026-05-03 20:17 | 28.54866 | -93.44217 | 33149 ft | 363 kts | 312° |
| 2026-05-03 20:17 | 28.56681 | -93.46229 | 32643 ft | 366 kts | 312° |
| 2026-05-03 20:18 | 28.58510 | -93.48256 | 32112 ft | 367 kts | 311° |
| 2026-05-03 20:18 | 28.60335 | -93.50280 | 31586 ft | 365 kts | 311° |
| 2026-05-03 20:18 | 28.62153 | -93.52297 | 31069 ft | 364 kts | 311° |
| 2026-05-03 20:18 | 28.63960 | -93.54304 | 30553 ft | 362 kts | 311° |
| 2026-05-03 20:19 | 28.65741 | -93.56282 | 30023 ft | 360 kts | 311° |
| 2026-05-03 20:19 | 28.67531 | -93.58271 | 29458 ft | 359 kts | 311° |
| 2026-05-03 20:19 | 28.69317 | -93.60257 | 28954 ft | 357 kts | 311° |
| 2026-05-03 20:19 | 28.71090 | -93.62230 | 28469 ft | 356 kts | 311° |
| 2026-05-03 20:20 | 28.72859 | -93.64199 | 27998 ft | 354 kts | 311° |
| 2026-05-03 20:20 | 28.74618 | -93.66158 | 27529 ft | 353 kts | 311° |
| 2026-05-03 20:20 | 28.76373 | -93.68113 | 27064 ft | 352 kts | 311° |
| 2026-05-03 20:20 | 28.78123 | -93.70064 | 26607 ft | 351 kts | 311° |
| 2026-05-03 20:21 | 28.79864 | -93.72006 | 26152 ft | 350 kts | 311° |
| 2026-05-03 20:21 | 28.81602 | -93.73945 | 25701 ft | 349 kts | 311° |
| 2026-05-03 20:21 | 28.83331 | -93.75876 | 25249 ft | 348 kts | 311° |
| 2026-05-03 20:21 | 28.85058 | -93.77804 | 24806 ft | 347 kts | 311° |
| 2026-05-03 20:22 | 28.86781 | -93.79730 | 24356 ft | 346 kts | 311° |
| 2026-05-03 20:22 | 28.88501 | -93.81653 | 23922 ft | 346 kts | 311° |
| 2026-05-03 20:22 | 28.90220 | -93.83575 | 23426 ft | 345 kts | 311° |
| 2026-05-03 20:22 | 28.91911 | -93.85466 | 22956 ft | 344 kts | 311° |
| 2026-05-03 20:23 | 28.93615 | -93.87374 | 22520 ft | 343 kts | 311° |
| 2026-05-03 20:23 | 28.95319 | -93.89282 | 22098 ft | 342 kts | 312° |
| 2026-05-03 20:23 | 28.97014 | -93.91181 | 21679 ft | 342 kts | 312° |
| 2026-05-03 20:23 | 28.98710 | -93.93082 | 21275 ft | 341 kts | 312° |
| 2026-05-03 20:24 | 29.00400 | -93.94978 | 20864 ft | 340 kts | 312° |
| 2026-05-03 20:24 | 29.02092 | -93.96876 | 20463 ft | 339 kts | 313° |
| 2026-05-03 20:24 | 29.03775 | -93.98766 | 20069 ft | 339 kts | 313° |
| 2026-05-03 20:24 | 29.05453 | -94.00653 | 19651 ft | 338 kts | 313° |
| 2026-05-03 20:25 | 29.07130 | -94.02539 | 19222 ft | 337 kts | 313° |
| 2026-05-03 20:25 | 29.08797 | -94.04415 | 18860 ft | 334 kts | 313° |
| 2026-05-03 20:25 | 29.10450 | -94.06275 | 18483 ft | 332 kts | 313° |
| 2026-05-03 20:25 | 29.12093 | -94.08125 | 18060 ft | 329 kts | 313° |
| 2026-05-03 20:26 | 29.13701 | -94.09934 | 17678 ft | 326 kts | 314° |
| 2026-05-03 20:26 | 29.15309 | -94.11746 | 17305 ft | 323 kts | 314° |
| 2026-05-03 20:26 | 29.16912 | -94.13553 | 16946 ft | 324 kts | 314° |
| 2026-05-03 20:26 | 29.18537 | -94.15385 | 16559 ft | 330 kts | 314° |
| 2026-05-03 20:27 | 29.20182 | -94.17241 | 16191 ft | 334 kts | 314° |
| 2026-05-03 20:27 | 29.21837 | -94.19109 | 15828 ft | 335 kts | 314° |
| 2026-05-03 20:27 | 29.23497 | -94.20983 | 15460 ft | 335 kts | 315° |
| 2026-05-03 20:27 | 29.25156 | -94.22857 | 15081 ft | 334 kts | 315° |
| 2026-05-03 20:28 | 29.26811 | -94.24728 | 14721 ft | 334 kts | 315° |
| 2026-05-03 20:28 | 29.28464 | -94.26597 | 14348 ft | 334 kts | 315° |
| 2026-05-03 20:28 | 29.30121 | -94.28471 | 13981 ft | 334 kts | 315° |
| 2026-05-03 20:28 | 29.31740 | -94.30305 | 13769 ft | 327 kts | 315° |
| 2026-05-03 20:29 | 29.33335 | -94.32110 | 13607 ft | 317 kts | 315° |
| 2026-05-03 20:29 | 29.34881 | -94.33862 | 13457 ft | 308 kts | 315° |
| 2026-05-03 20:29 | 29.36381 | -94.35562 | 13325 ft | 299 kts | 315° |
| 2026-05-03 20:29 | 29.37820 | -94.37231 | 13241 ft | 291 kts | 310° |
| 2026-05-03 20:30 | 29.39019 | -94.39102 | 13103 ft | 291 kts | 306° |
| 2026-05-03 20:30 | 29.40207 | -94.40985 | 12978 ft | 292 kts | 307° |
| 2026-05-03 20:30 | 29.41406 | -94.42858 | 12865 ft | 291 kts | 307° |
| 2026-05-03 20:30 | 29.42206 | -94.44097 | 12785 ft | 291 kts | 307° |
| 2026-05-03 20:31 | 29.43412 | -94.45955 | 12660 ft | 290 kts | 307° |
| 2026-05-03 20:31 | 29.44621 | -94.47811 | 12537 ft | 290 kts | 307° |
| 2026-05-03 20:31 | 29.45828 | -94.49660 | 12412 ft | 289 kts | 307° |
| 2026-05-03 20:31 | 29.47033 | -94.51504 | 12186 ft | 288 kts | 307° |
| 2026-05-03 20:32 | 29.48234 | -94.53343 | 11985 ft | 286 kts | 307° |
| 2026-05-03 20:32 | 29.49804 | -94.55747 | 11797 ft | 281 kts | 307° |
| 2026-05-03 20:32 | 29.50577 | -94.56932 | 11712 ft | 277 kts | 307° |
| 2026-05-03 20:32 | 29.51719 | -94.58685 | 11585 ft | 273 kts | 307° |
| 2026-05-03 20:33 | 29.52853 | -94.60426 | 11462 ft | 272 kts | 307° |
| 2026-05-03 20:33 | 29.53983 | -94.62163 | 11348 ft | 271 kts | 307° |
| 2026-05-03 20:33 | 29.55111 | -94.63898 | 11235 ft | 271 kts | 307° |
| 2026-05-03 20:33 | 29.56237 | -94.65630 | 11125 ft | 270 kts | 307° |
| 2026-05-03 20:34 | 29.57358 | -94.67355 | 11002 ft | 269 kts | 307° |
| 2026-05-03 20:34 | 29.58477 | -94.69078 | 10887 ft | 268 kts | 307° |
| 2026-05-03 20:34 | 29.59591 | -94.70793 | 10773 ft | 268 kts | 307° |
| 2026-05-03 20:34 | 29.60703 | -94.72505 | 10648 ft | 267 kts | 307° |
| 2026-05-03 20:35 | 29.61816 | -94.74221 | 10541 ft | 266 kts | 307° |
| 2026-05-03 20:35 | 29.62919 | -94.75922 | 10419 ft | 266 kts | 307° |
| 2026-05-03 20:35 | 29.64024 | -94.77626 | 10299 ft | 265 kts | 307° |
| 2026-05-03 20:35 | 29.65132 | -94.79284 | 10184 ft | 265 kts | 310° |
| 2026-05-03 20:36 | 29.66309 | -94.80913 | 10056 ft | 264 kts | 310° |
| 2026-05-03 20:36 | 29.67480 | -94.82542 | 9935 ft | 264 kts | 310° |
| 2026-05-03 20:36 | 29.68650 | -94.84176 | 9821 ft | 264 kts | 310° |
| 2026-05-03 20:36 | 29.69817 | -94.85810 | 9702 ft | 265 kts | 310° |
| 2026-05-03 20:37 | 29.70987 | -94.87448 | 9585 ft | 265 kts | 310° |
| 2026-05-03 20:37 | 29.72154 | -94.89084 | 9484 ft | 264 kts | 310° |
| 2026-05-03 20:37 | 29.73324 | -94.90724 | 9375 ft | 265 kts | 310° |
| 2026-05-03 20:37 | 29.74477 | -94.92343 | 9245 ft | 265 kts | 310° |
| 2026-05-03 20:38 | 29.75646 | -94.93985 | 9123 ft | 265 kts | 310° |
| 2026-05-03 20:38 | 29.76815 | -94.95627 | 9014 ft | 265 kts | 310° |
| 2026-05-03 20:38 | 29.77980 | -94.97264 | 8899 ft | 265 kts | 310° |
| 2026-05-03 20:38 | 29.79147 | -94.98905 | 8779 ft | 265 kts | 310° |
| 2026-05-03 20:39 | 29.80313 | -95.00544 | 8667 ft | 265 kts | 310° |
| 2026-05-03 20:39 | 29.81482 | -95.02189 | 8558 ft | 265 kts | 310° |
| 2026-05-03 20:39 | 29.82651 | -95.03833 | 8434 ft | 265 kts | 310° |
| 2026-05-03 20:39 | 29.83816 | -95.05474 | 8331 ft | 265 kts | 310° |
| 2026-05-03 20:40 | 29.84983 | -95.07116 | 8209 ft | 265 kts | 310° |
| 2026-05-03 20:40 | 29.86147 | -95.08757 | 8077 ft | 265 kts | 310° |
| 2026-05-03 20:40 | 29.87244 | -95.10465 | 7956 ft | 266 kts | 297° |
| 2026-05-03 20:40 | 29.87780 | -95.12494 | 7829 ft | 266 kts | 284° |
| 2026-05-03 20:41 | 29.88216 | -95.14574 | 7732 ft | 267 kts | 285° |
| 2026-05-03 20:41 | 29.88647 | -95.16655 | 7624 ft | 267 kts | 284° |
| 2026-05-03 20:41 | 29.89064 | -95.18742 | 7505 ft | 267 kts | 281° |
| 2026-05-03 20:41 | 29.89171 | -95.20879 | 7399 ft | 268 kts | 271° |
| 2026-05-03 20:42 | 29.89170 | -95.23002 | 7277 ft | 268 kts | 271° |
| 2026-05-03 20:42 | 29.89172 | -95.25153 | 7137 ft | 268 kts | 271° |
| 2026-05-03 20:42 | 29.89178 | -95.27309 | 7025 ft | 269 kts | 271° |
| 2026-05-03 20:42 | 29.89185 | -95.29468 | 6899 ft | 269 kts | 271° |
| 2026-05-03 20:43 | 29.89191 | -95.31622 | 6773 ft | 269 kts | 271° |
| 2026-05-03 20:43 | 29.89198 | -95.33786 | 6659 ft | 269 kts | 270° |
| 2026-05-03 20:43 | 29.89203 | -95.35926 | 6537 ft | 264 kts | 270° |
| 2026-05-03 20:43 | 29.89209 | -95.38006 | 6425 ft | 255 kts | 270° |
| 2026-05-03 20:44 | 29.89213 | -95.40015 | 6310 ft | 246 kts | 270° |
| 2026-05-03 20:44 | 29.89218 | -95.41909 | 6229 ft | 232 kts | 270° |
| 2026-05-03 20:44 | 29.89222 | -95.43737 | 6110 ft | 219 kts | 270° |
| 2026-05-03 20:44 | 29.89226 | -95.45417 | 5999 ft | 206 kts | 270° |
| 2026-05-03 20:45 | 29.89220 | -95.47023 | 5888 ft | 195 kts | 268° |
| 2026-05-03 20:45 | 29.89195 | -95.48543 | 5784 ft | 187 kts | 268° |
| 2026-05-03 20:45 | 29.89173 | -95.50049 | 5676 ft | 188 kts | 268° |
| 2026-05-03 20:45 | 29.89148 | -95.51558 | 5624 ft | 188 kts | 268° |
| 2026-05-03 20:46 | 29.89123 | -95.53070 | 5463 ft | 190 kts | 268° |
| 2026-05-03 20:46 | 29.89113 | -95.53719 | 5266 ft | 194 kts | 268° |
| 2026-05-03 20:47 | 29.89099 | -95.54485 | 5007 ft | 201 kts | 267° |
| 2026-05-03 20:47 | 29.89072 | -95.56134 | 4462 ft | 210 kts | 268° |
| 2026-05-03 20:48 | 29.89144 | -95.57812 | 3960 ft | 217 kts | 284° |
| 2026-05-03 20:48 | 29.89928 | -95.59311 | 3414 ft | 225 kts | 317° |
| 2026-05-03 20:48 | 29.91308 | -95.60097 | 2994 ft | 216 kts | 349° |
| 2026-05-03 20:48 | 29.92702 | -95.60281 | 2939 ft | 189 kts | 356° |
| 2026-05-03 20:49 | 29.93977 | -95.60408 | 2968 ft | 183 kts | 355° |
| 2026-05-03 20:49 | 29.95244 | -95.60534 | 2954 ft | 183 kts | 355° |
| 2026-05-03 20:49 | 29.96517 | -95.60660 | 3025 ft | 184 kts | 356° |
| 2026-05-03 20:49 | 29.97790 | -95.60690 | 2946 ft | 182 kts | 13° |
| 2026-05-03 20:50 | 29.98910 | -95.60091 | 3012 ft | 178 kts | 46° |
| 2026-05-03 20:50 | 29.99360 | -95.58828 | 2853 ft | 171 kts | 91° |
| 2026-05-03 20:50 | 29.99288 | -95.57439 | 2804 ft | 174 kts | 95° |
| 2026-05-03 20:50 | 29.99219 | -95.56041 | 2908 ft | 176 kts | 93° |
| 2026-05-03 20:51 | 29.99245 | -95.54625 | 2935 ft | 177 kts | 89° |
| 2026-05-03 20:51 | 29.99299 | -95.53212 | 2949 ft | 176 kts | 90° |
| 2026-05-03 20:51 | 29.99319 | -95.51804 | 2861 ft | 175 kts | 91° |
| 2026-05-03 20:51 | 29.99329 | -95.50423 | 2898 ft | 175 kts | 91° |
| 2026-05-03 20:52 | 29.99336 | -95.48975 | 2531 ft | 185 kts | 92° |
| 2026-05-03 20:52 | 29.99328 | -95.47481 | 2100 ft | 189 kts | 91° |
| 2026-05-03 20:52 | 29.99322 | -95.45987 | 1808 ft | 181 kts | 92° |
| 2026-05-03 20:52 | 29.99331 | -95.44613 | 1554 ft | 166 kts | 91° |
| 2026-05-03 20:53 | 29.99341 | -95.43367 | 1380 ft | 147 kts | 92° |
| 2026-05-03 20:53 | 29.99335 | -95.42126 | 1160 ft | 162 kts | 91° |
| 2026-05-03 20:53 | 29.99341 | -95.40785 | 1006 ft | 173 kts | 90° |
| 2026-05-03 20:53 | 29.99337 | -95.39433 | 783 ft | 162 kts | 91° |
| 2026-05-03 20:54 | 29.99337 | -95.38184 | 535 ft | 154 kts | 90° |
| 2026-05-03 20:54 | 29.99339 | -95.35738 | 180 ft | 148 kts | 91° |
| 2026-05-03 20:54 | 29.99342 | -95.34621 | 110 ft | 125 kts | 90° |
| 2026-05-03 20:55 | 29.99343 | -95.33923 | 108 ft | 45 kts | 89° |
| 2026-05-03 20:55 | 29.99344 | -95.33659 | 110 ft | 32 kts | 90° |
| 2026-05-03 20:55 | 29.99337 | -95.33423 | 110 ft | 28 kts | 98° |
| 2026-05-03 20:55 | 29.99285 | -95.33240 | 110 ft | 19 kts | 118° |
| 2026-05-03 20:56 | 29.99218 | -95.33107 | 109 ft | 20 kts | 120° |
| 2026-05-03 20:56 | 29.99108 | -95.33026 | 109 ft | 21 kts | 179° |
| 2026-05-03 20:56 | 29.98955 | -95.33023 | 109 ft | 23 kts | 181° |
| 2026-05-03 20:56 | 29.98803 | -95.33026 | 109 ft | 18 kts | 180° |
| 2026-05-03 20:57 | 29.98672 | -95.33026 | 110 ft | 20 kts | 179° |
| 2026-05-03 20:57 | 29.98546 | -95.33025 | 110 ft | 18 kts | 180° |
| 2026-05-03 20:57 | 29.98443 | -95.33025 | 109 ft | 13 kts | 180° |
| 2026-05-03 20:57 | 29.98349 | -95.33026 | 109 ft | 13 kts | 181° |
| 2026-05-03 20:58 | 29.98301 | -95.33101 | 109 ft | 14 kts | 269° |
| 2026-05-03 20:58 | 29.98301 | -95.33203 | 109 ft | 12 kts | 270° |
| 2026-05-03 20:58 | 29.98300 | -95.33308 | 109 ft | 13 kts | 270° |
| 2026-05-03 20:58 | 29.98300 | -95.33363 | 109 ft | 0 kts | 273° |
| 2026-05-03 20:59 | 29.98300 | -95.33364 | 109 ft | 1 kts | 276° |
| 2026-05-03 20:59 | 29.98312 | -95.33386 | 108 ft | 5 kts | 318° |
| 2026-05-03 20:59 | 29.98360 | -95.33397 | 109 ft | 9 kts | 355° |
| 2026-05-03 20:59 | 29.98411 | -95.33446 | 109 ft | 7 kts | 308° |
| 2026-05-03 21:00 | 29.98430 | -95.33464 | 109 ft | 1 kts | 325° |
| 2026-05-03 21:00 | 29.98432 | -95.33465 | 109 ft | 0 kts | 325° |
| 2026-05-03 21:00 | 29.98437 | -95.33469 | 109 ft | 0 kts | 326° |